Terminal Aerodrome Forecast
Issued by NWS

Home | Current Version | Previous Version | Text Only | Print | Product List | Glossary On
Versions: 1 2 3 4 5 6 7 8 9 10 11 12 13 14
765
FTUS41 KBTV 301134
TAFMSS
TAF
KMSS 301134Z 3012/3112 18007KT P6SM VCSH SCT100
     FM301300 18008KT P6SM VCSH BKN100
     FM301900 19011G18KT P6SM -SHRA BKN090
     FM302200 20012KT P6SM VCSH SCT140
     FM310000 20010KT P6SM SCT150
     FM310900 20006KT P6SM BKN110=

USA.gov is the U.S. government's official web portal to all federal, state and local government web resources and services.